sensor_id;sensor_type;location;lat;lon;timestamp;temperature;humidity
30628;DHT22;17394;50.890;4.724;2022-07-04T00:01:18;14.10;99.90
30628;DHT22;17394;50.890;4.724;2022-07-04T00:03:44;14.10;99.90
30628;DHT22;17394;50.890;4.724;2022-07-04T00:06:10;14.10;99.90
30628;DHT22;17394;50.890;4.724;2022-07-04T00:08:36;14.10;99.90
30628;DHT22;17394;50.890;4.724;2022-07-04T00:11:02;14.00;99.90
30628;DHT22;17394;50.890;4.724;2022-07-04T00:13:28;14.00;99.90
30628;DHT22;17394;50.890;4.724;2022-07-04T00:15:54;14.00;99.90
30628;DHT22;17394;50.890;4.724;2022-07-04T00:18:20;14.10;99.90
30628;DHT22;17394;50.890;4.724;2022-07-04T00:20:47;13.90;99.90
30628;DHT22;17394;50.890;4.724;2022-07-04T00:23:14;13.80;99.90
30628;DHT22;17394;50.890;4.724;2022-07-04T00:25:42;13.80;99.90
30628;DHT22;17394;50.890;4.724;2022-07-04T00:28:09;13.80;99.90
30628;DHT22;17394;50.890;4.724;2022-07-04T00:30:35;13.80;99.90
30628;DHT22;17394;50.890;4.724;2022-07-04T00:33:01;13.70;99.90
30628;DHT22;17394;50.890;4.724;2022-07-04T00:35:27;13.70;99.90
30628;DHT22;17394;50.890;4.724;2022-07-04T00:37:53;13.70;99.90
30628;DHT22;17394;50.890;4.724;2022-07-04T00:40:19;13.70;99.90
30628;DHT22;17394;50.890;4.724;2022-07-04T00:42:45;13.70;99.90
30628;DHT22;17394;50.890;4.724;2022-07-04T00:45:11;13.60;99.90
30628;DHT22;17394;50.890;4.724;2022-07-04T00:47:38;13.60;99.90
30628;DHT22;17394;50.890;4.724;2022-07-04T00:50:04;13.60;99.90
30628;DHT22;17394;50.890;4.724;2022-07-04T00:52:31;13.50;99.90
30628;DHT22;17394;50.890;4.724;2022-07-04T00:54:57;13.50;99.90
30628;DHT22;17394;50.890;4.724;2022-07-04T00:57:26;13.50;99.90
30628;DHT22;17394;50.890;4.724;2022-07-04T00:59:52;13.40;99.90
30628;DHT22;17394;50.890;4.724;2022-07-04T01:02:19;13.40;99.90
30628;DHT22;17394;50.890;4.724;2022-07-04T01:04:45;13.40;99.90
30628;DHT22;17394;50.890;4.724;2022-07-04T01:07:12;13.40;99.90
30628;DHT22;17394;50.890;4.724;2022-07-04T01:09:38;13.30;99.90
30628;DHT22;17394;50.890;4.724;2022-07-04T01:12:05;13.30;99.90
30628;DHT22;17394;50.890;4.724;2022-07-04T01:14:32;13.30;99.90
30628;DHT22;17394;50.890;4.724;2022-07-04T01:16:58;13.20;99.90
30628;DHT22;17394;50.890;4.724;2022-07-04T01:19:24;13.20;99.90
30628;DHT22;17394;50.890;4.724;2022-07-04T01:21:50;13.20;99.90
30628;DHT22;17394;50.890;4.724;2022-07-04T01:24:16;13.20;99.90
30628;DHT22;17394;50.890;4.724;2022-07-04T01:26:43;13.10;99.90
30628;DHT22;17394;50.890;4.724;2022-07-04T01:29:09;13.10;99.90
30628;DHT22;17394;50.890;4.724;2022-07-04T01:31:35;13.10;99.90
30628;DHT22;17394;50.890;4.724;2022-07-04T01:34:01;13.00;99.90
30628;DHT22;17394;50.890;4.724;2022-07-04T01:36:28;13.00;99.90
30628;DHT22;17394;50.890;4.724;2022-07-04T01:38:54;13.00;99.90
30628;DHT22;17394;50.890;4.724;2022-07-04T01:41:22;13.00;99.90
30628;DHT22;17394;50.890;4.724;2022-07-04T01:43:49;12.90;99.90
30628;DHT22;17394;50.890;4.724;2022-07-04T01:46:15;12.90;99.90
30628;DHT22;17394;50.890;4.724;2022-07-04T01:48:41;12.90;99.90
30628;DHT22;17394;50.890;4.724;2022-07-04T01:51:07;12.90;99.90
30628;DHT22;17394;50.890;4.724;2022-07-04T01:53:36;12.90;99.90
30628;DHT22;17394;50.890;4.724;2022-07-04T01:56:03;12.90;99.90
30628;DHT22;17394;50.890;4.724;2022-07-04T01:58:29;12.90;99.90
30628;DHT22;17394;50.890;4.724;2022-07-04T02:00:55;12.90;99.90
30628;DHT22;17394;50.890;4.724;2022-07-04T02:03:40;12.90;99.90
30628;DHT22;17394;50.890;4.724;2022-07-04T02:06:06;12.80;99.90
30628;DHT22;17394;50.890;4.724;2022-07-04T02:08:32;12.80;99.90
30628;DHT22;17394;50.890;4.724;2022-07-04T02:11:17;12.80;99.90
30628;DHT22;17394;50.890;4.724;2022-07-04T02:13:43;12.70;99.90
30628;DHT22;17394;50.890;4.724;2022-07-04T02:16:09;12.80;99.90
30628;DHT22;17394;50.890;4.724;2022-07-04T02:18:35;12.80;99.90
30628;DHT22;17394;50.890;4.724;2022-07-04T02:21:02;12.70;99.90
30628;DHT22;17394;50.890;4.724;2022-07-04T02:23:28;12.80;99.90
30628;DHT22;17394;50.890;4.724;2022-07-04T02:25:54;12.80;99.90
30628;DHT22;17394;50.890;4.724;2022-07-04T02:28:20;12.80;99.90
30628;DHT22;17394;50.890;4.724;2022-07-04T02:30:46;12.80;99.90
30628;DHT22;17394;50.890;4.724;2022-07-04T02:33:12;12.80;99.90
30628;DHT22;17394;50.890;4.724;2022-07-04T02:35:39;12.80;99.90
30628;DHT22;17394;50.890;4.724;2022-07-04T02:38:05;12.80;99.90
30628;DHT22;17394;50.890;4.724;2022-07-04T02:40:31;12.80;99.90
30628;DHT22;17394;50.890;4.724;2022-07-04T02:42:57;12.80;99.90
30628;DHT22;17394;50.890;4.724;2022-07-04T02:45:23;12.70;99.90
30628;DHT22;17394;50.890;4.724;2022-07-04T02:47:49;12.70;99.90
30628;DHT22;17394;50.890;4.724;2022-07-04T02:50:15;12.70;99.90
30628;DHT22;17394;50.890;4.724;2022-07-04T02:52:41;12.70;99.90
30628;DHT22;17394;50.890;4.724;2022-07-04T02:55:08;12.70;99.90
30628;DHT22;17394;50.890;4.724;2022-07-04T02:57:34;12.70;99.90
30628;DHT22;17394;50.890;4.724;2022-07-04T03:00:03;12.60;99.90
30628;DHT22;17394;50.890;4.724;2022-07-04T03:02:30;12.60;99.90
30628;DHT22;17394;50.890;4.724;2022-07-04T03:04:56;12.60;99.90
30628;DHT22;17394;50.890;4.724;2022-07-04T03:07:22;12.60;99.90
30628;DHT22;17394;50.890;4.724;2022-07-04T03:09:48;12.60;99.90
30628;DHT22;17394;50.890;4.724;2022-07-04T03:12:14;12.60;99.90
30628;DHT22;17394;50.890;4.724;2022-07-04T03:14:40;12.50;99.90
30628;DHT22;17394;50.890;4.724;2022-07-04T03:17:06;12.50;99.90
30628;DHT22;17394;50.890;4.724;2022-07-04T03:19:33;12.50;99.90
30628;DHT22;17394;50.890;4.724;2022-07-04T03:21:59;12.50;99.90
30628;DHT22;17394;50.890;4.724;2022-07-04T03:24:25;12.50;99.90
30628;DHT22;17394;50.890;4.724;2022-07-04T03:26:51;12.50;99.90
30628;DHT22;17394;50.890;4.724;2022-07-04T03:29:17;12.50;99.90
30628;DHT22;17394;50.890;4.724;2022-07-04T03:31:44;12.50;99.90
30628;DHT22;17394;50.890;4.724;2022-07-04T03:34:10;12.50;99.90
30628;DHT22;17394;50.890;4.724;2022-07-04T03:36:37;12.50;99.90
30628;DHT22;17394;50.890;4.724;2022-07-04T03:39:03;12.50;99.90
30628;DHT22;17394;50.890;4.724;2022-07-04T03:41:30;12.50;99.90
30628;DHT22;17394;50.890;4.724;2022-07-04T03:43:56;12.40;99.90
30628;DHT22;17394;50.890;4.724;2022-07-04T03:46:22;12.40;99.90
30628;DHT22;17394;50.890;4.724;2022-07-04T03:48:48;12.40;99.90
30628;DHT22;17394;50.890;4.724;2022-07-04T03:51:14;12.60;99.90
30628;DHT22;17394;50.890;4.724;2022-07-04T03:53:42;12.40;99.90
30628;DHT22;17394;50.890;4.724;2022-07-04T03:56:08;12.40;99.90
30628;DHT22;17394;50.890;4.724;2022-07-04T03:58:35;12.40;99.90
30628;DHT22;17394;50.890;4.724;2022-07-04T04:01:02;12.40;99.90
30628;DHT22;17394;50.890;4.724;2022-07-04T04:03:28;12.40;99.90
30628;DHT22;17394;50.890;4.724;2022-07-04T04:06:12;12.40;99.90
30628;DHT22;17394;50.890;4.724;2022-07-04T04:08:38;12.40;99.90
30628;DHT22;17394;50.890;4.724;2022-07-04T04:11:04;12.40;99.90
30628;DHT22;17394;50.890;4.724;2022-07-04T04:13:30;12.40;99.90
30628;DHT22;17394;50.890;4.724;2022-07-04T04:15:56;12.40;99.90
30628;DHT22;17394;50.890;4.724;2022-07-04T04:18:22;12.40;99.90
30628;DHT22;17394;50.890;4.724;2022-07-04T04:20:48;12.40;99.90
30628;DHT22;17394;50.890;4.724;2022-07-04T04:23:14;12.40;99.90
30628;DHT22;17394;50.890;4.724;2022-07-04T04:25:40;12.40;99.90
30628;DHT22;17394;50.890;4.724;2022-07-04T04:28:06;12.50;99.90
30628;DHT22;17394;50.890;4.724;2022-07-04T04:30:32;12.50;99.90
30628;DHT22;17394;50.890;4.724;2022-07-04T04:32:59;12.50;99.90
30628;DHT22;17394;50.890;4.724;2022-07-04T04:35:25;12.50;99.90
30628;DHT22;17394;50.890;4.724;2022-07-04T04:37:51;12.50;99.90
30628;DHT22;17394;50.890;4.724;2022-07-04T04:40:17;12.50;99.90
30628;DHT22;17394;50.890;4.724;2022-07-04T04:42:43;12.60;99.90
30628;DHT22;17394;50.890;4.724;2022-07-04T04:45:10;12.60;99.90
30628;DHT22;17394;50.890;4.724;2022-07-04T04:47:36;12.70;99.90
30628;DHT22;17394;50.890;4.724;2022-07-04T04:50:02;12.70;99.90
30628;DHT22;17394;50.890;4.724;2022-07-04T04:52:28;12.70;99.90
30628;DHT22;17394;50.890;4.724;2022-07-04T04:54:54;12.80;99.90
30628;DHT22;17394;50.890;4.724;2022-07-04T04:57:20;12.80;99.90
30628;DHT22;17394;50.890;4.724;2022-07-04T04:59:46;12.80;99.90
30628;DHT22;17394;50.890;4.724;2022-07-04T05:02:12;12.80;99.90
30628;DHT22;17394;50.890;4.724;2022-07-04T05:04:38;12.90;99.90
30628;DHT22;17394;50.890;4.724;2022-07-04T05:07:04;13.00;99.90
30628;DHT22;17394;50.890;4.724;2022-07-04T05:09:30;13.00;99.90
30628;DHT22;17394;50.890;4.724;2022-07-04T05:11:56;13.00;99.90
30628;DHT22;17394;50.890;4.724;2022-07-04T05:14:22;13.10;99.90
30628;DHT22;17394;50.890;4.724;2022-07-04T05:16:48;12.90;99.90
30628;DHT22;17394;50.890;4.724;2022-07-04T05:19:14;13.20;99.90
30628;DHT22;17394;50.890;4.724;2022-07-04T05:21:40;13.20;99.90
30628;DHT22;17394;50.890;4.724;2022-07-04T05:24:06;13.30;99.90
30628;DHT22;17394;50.890;4.724;2022-07-04T05:26:32;13.30;99.90
30628;DHT22;17394;50.890;4.724;2022-07-04T05:28:58;13.40;99.90
30628;DHT22;17394;50.890;4.724;2022-07-04T05:31:24;13.40;99.90
30628;DHT22;17394;50.890;4.724;2022-07-04T05:33:52;13.50;99.90
30628;DHT22;17394;50.890;4.724;2022-07-04T05:36:22;13.60;99.90
30628;DHT22;17394;50.890;4.724;2022-07-04T05:38:48;13.60;99.90
30628;DHT22;17394;50.890;4.724;2022-07-04T05:41:13;13.70;99.90
30628;DHT22;17394;50.890;4.724;2022-07-04T05:43:40;13.70;99.90
30628;DHT22;17394;50.890;4.724;2022-07-04T05:46:07;13.80;99.90
30628;DHT22;17394;50.890;4.724;2022-07-04T05:48:33;13.80;99.90
30628;DHT22;17394;50.890;4.724;2022-07-04T05:50:59;13.90;99.90
30628;DHT22;17394;50.890;4.724;2022-07-04T05:53:25;14.00;99.90
30628;DHT22;17394;50.890;4.724;2022-07-04T05:55:51;14.00;99.90
30628;DHT22;17394;50.890;4.724;2022-07-04T05:58:17;14.10;99.90
30628;DHT22;17394;50.890;4.724;2022-07-04T06:00:43;14.20;99.90
30628;DHT22;17394;50.890;4.724;2022-07-04T06:03:09;14.30;99.90
30628;DHT22;17394;50.890;4.724;2022-07-04T06:05:35;14.30;99.90
30628;DHT22;17394;50.890;4.724;2022-07-04T06:08:02;14.40;99.90
30628;DHT22;17394;50.890;4.724;2022-07-04T06:10:29;14.50;99.90
30628;DHT22;17394;50.890;4.724;2022-07-04T06:12:55;14.60;99.90
30628;DHT22;17394;50.890;4.724;2022-07-04T06:15:21;14.60;99.90
30628;DHT22;17394;50.890;4.724;2022-07-04T06:17:47;14.70;99.90
30628;DHT22;17394;50.890;4.724;2022-07-04T06:20:13;14.80;99.90
30628;DHT22;17394;50.890;4.724;2022-07-04T06:22:47;15.00;99.90
30628;DHT22;17394;50.890;4.724;2022-07-04T06:25:19;15.10;99.90
30628;DHT22;17394;50.890;4.724;2022-07-04T06:27:48;15.10;99.90
30628;DHT22;17394;50.890;4.724;2022-07-04T06:30:16;15.20;99.90
30628;DHT22;17394;50.890;4.724;2022-07-04T06:32:52;15.50;99.90
30628;DHT22;17394;50.890;4.724;2022-07-04T06:35:22;15.70;99.90
30628;DHT22;17394;50.890;4.724;2022-07-04T06:38:08;15.80;99.90
30628;DHT22;17394;50.890;4.724;2022-07-04T06:40:36;16.00;99.90
30628;DHT22;17394;50.890;4.724;2022-07-04T06:43:04;16.10;99.90
30628;DHT22;17394;50.890;4.724;2022-07-04T06:45:30;16.20;99.90
30628;DHT22;17394;50.890;4.724;2022-07-04T06:47:56;16.40;99.90
30628;DHT22;17394;50.890;4.724;2022-07-04T06:50:23;16.60;99.90
30628;DHT22;17394;50.890;4.724;2022-07-04T06:52:49;16.80;99.90
30628;DHT22;17394;50.890;4.724;2022-07-04T06:55:15;17.00;99.90
30628;DHT22;17394;50.890;4.724;2022-07-04T06:57:41;17.20;99.90
30628;DHT22;17394;50.890;4.724;2022-07-04T07:00:08;17.40;99.90
30628;DHT22;17394;50.890;4.724;2022-07-04T07:02:36;17.50;99.90
30628;DHT22;17394;50.890;4.724;2022-07-04T07:05:04;17.70;99.90
30628;DHT22;17394;50.890;4.724;2022-07-04T07:07:31;17.80;99.90
30628;DHT22;17394;50.890;4.724;2022-07-04T07:09:56;18.00;99.90
30628;DHT22;17394;50.890;4.724;2022-07-04T07:12:23;18.10;99.90
30628;DHT22;17394;50.890;4.724;2022-07-04T07:14:50;18.30;99.90
30628;DHT22;17394;50.890;4.724;2022-07-04T07:17:17;18.40;99.90
30628;DHT22;17394;50.890;4.724;2022-07-04T07:19:44;18.60;99.90
30628;DHT22;17394;50.890;4.724;2022-07-04T07:22:13;18.80;99.90
30628;DHT22;17394;50.890;4.724;2022-07-04T07:24:40;19.00;99.90
30628;DHT22;17394;50.890;4.724;2022-07-04T07:27:07;19.10;99.90
30628;DHT22;17394;50.890;4.724;2022-07-04T07:29:36;19.30;99.90
30628;DHT22;17394;50.890;4.724;2022-07-04T07:32:03;19.40;99.90
30628;DHT22;17394;50.890;4.724;2022-07-04T07:34:30;19.50;99.90
30628;DHT22;17394;50.890;4.724;2022-07-04T07:36:56;19.60;99.90
30628;DHT22;17394;50.890;4.724;2022-07-04T07:39:22;19.70;99.90
30628;DHT22;17394;50.890;4.724;2022-07-04T07:41:48;19.90;99.90
30628;DHT22;17394;50.890;4.724;2022-07-04T07:44:14;20.00;99.90
30628;DHT22;17394;50.890;4.724;2022-07-04T07:46:41;20.20;99.90
30628;DHT22;17394;50.890;4.724;2022-07-04T07:49:07;20.40;99.90
30628;DHT22;17394;50.890;4.724;2022-07-04T07:51:34;20.40;99.90
30628;DHT22;17394;50.890;4.724;2022-07-04T07:54:00;20.50;99.90
30628;DHT22;17394;50.890;4.724;2022-07-04T07:56:26;20.60;99.90
30628;DHT22;17394;50.890;4.724;2022-07-04T07:58:52;20.70;99.90
30628;DHT22;17394;50.890;4.724;2022-07-04T08:01:18;20.80;99.90
30628;DHT22;17394;50.890;4.724;2022-07-04T08:03:46;21.00;99.90
30628;DHT22;17394;50.890;4.724;2022-07-04T08:06:33;21.10;99.90
30628;DHT22;17394;50.890;4.724;2022-07-04T08:09:00;21.30;99.90
30628;DHT22;17394;50.890;4.724;2022-07-04T08:11:26;21.40;99.90
30628;DHT22;17394;50.890;4.724;2022-07-04T08:13:53;21.40;99.90
30628;DHT22;17394;50.890;4.724;2022-07-04T08:16:19;21.50;99.90
30628;DHT22;17394;50.890;4.724;2022-07-04T08:18:45;21.70;99.90
30628;DHT22;17394;50.890;4.724;2022-07-04T08:21:12;21.90;99.90
30628;DHT22;17394;50.890;4.724;2022-07-04T08:23:40;22.00;99.90
30628;DHT22;17394;50.890;4.724;2022-07-04T08:26:07;22.10;99.90
30628;DHT22;17394;50.890;4.724;2022-07-04T08:28:34;22.00;99.90
30628;DHT22;17394;50.890;4.724;2022-07-04T08:31:00;22.00;99.90
30628;DHT22;17394;50.890;4.724;2022-07-04T08:33:27;22.10;99.90
30628;DHT22;17394;50.890;4.724;2022-07-04T08:35:54;22.20;99.90
30628;DHT22;17394;50.890;4.724;2022-07-04T08:38:21;22.40;99.90
30628;DHT22;17394;50.890;4.724;2022-07-04T08:40:50;22.50;99.90
30628;DHT22;17394;50.890;4.724;2022-07-04T08:43:23;22.60;99.90
30628;DHT22;17394;50.890;4.724;2022-07-04T08:45:54;22.40;99.90
30628;DHT22;17394;50.890;4.724;2022-07-04T08:48:25;22.50;99.90
30628;DHT22;17394;50.890;4.724;2022-07-04T08:51:00;22.60;99.90
30628;DHT22;17394;50.890;4.724;2022-07-04T08:53:31;22.70;99.90
30628;DHT22;17394;50.890;4.724;2022-07-04T08:56:02;22.70;99.90
30628;DHT22;17394;50.890;4.724;2022-07-04T08:58:49;22.70;99.90
30628;DHT22;17394;50.890;4.724;2022-07-04T09:01:19;22.60;99.90
30628;DHT22;17394;50.890;4.724;2022-07-04T09:03:46;22.50;99.90
30628;DHT22;17394;50.890;4.724;2022-07-04T09:06:14;22.40;99.90
30628;DHT22;17394;50.890;4.724;2022-07-04T09:08:41;22.50;99.90
30628;DHT22;17394;50.890;4.724;2022-07-04T09:11:08;22.70;99.90
30628;DHT22;17394;50.890;4.724;2022-07-04T09:13:35;22.70;99.90
30628;DHT22;17394;50.890;4.724;2022-07-04T09:16:03;22.90;99.90
30628;DHT22;17394;50.890;4.724;2022-07-04T09:18:33;23.00;99.90
30628;DHT22;17394;50.890;4.724;2022-07-04T09:21:03;23.10;99.90
30628;DHT22;17394;50.890;4.724;2022-07-04T09:23:36;23.30;99.90
30628;DHT22;17394;50.890;4.724;2022-07-04T09:26:18;23.40;99.90
30628;DHT22;17394;50.890;4.724;2022-07-04T09:28:55;23.60;99.90
30628;DHT22;17394;50.890;4.724;2022-07-04T09:31:28;23.70;99.90
30628;DHT22;17394;50.890;4.724;2022-07-04T09:33:58;23.70;99.90
30628;DHT22;17394;50.890;4.724;2022-07-04T09:36:34;23.60;99.90
30628;DHT22;17394;50.890;4.724;2022-07-04T09:42:03;23.60;99.90
30628;DHT22;17394;50.890;4.724;2022-07-04T09:44:47;23.80;99.90
30628;DHT22;17394;50.890;4.724;2022-07-04T09:47:28;24.20;99.90
30628;DHT22;17394;50.890;4.724;2022-07-04T09:50:12;24.30;99.90
30628;DHT22;17394;50.890;4.724;2022-07-04T09:55:33;24.30;99.90
30628;DHT22;17394;50.890;4.724;2022-07-04T09:58:03;24.30;99.90
30628;DHT22;17394;50.890;4.724;2022-07-04T10:03:27;23.70;99.90
30628;DHT22;17394;50.890;4.724;2022-07-04T10:06:12;23.70;99.90
30628;DHT22;17394;50.890;4.724;2022-07-04T10:08:41;23.80;99.90
30628;DHT22;17394;50.890;4.724;2022-07-04T10:11:10;24.20;99.90
30628;DHT22;17394;50.890;4.724;2022-07-04T10:13:38;24.50;99.90
30628;DHT22;17394;50.890;4.724;2022-07-04T10:16:05;24.40;99.90
30628;DHT22;17394;50.890;4.724;2022-07-04T10:18:33;24.30;99.90
30628;DHT22;17394;50.890;4.724;2022-07-04T10:21:00;24.20;99.90
30628;DHT22;17394;50.890;4.724;2022-07-04T10:23:26;24.20;99.90
30628;DHT22;17394;50.890;4.724;2022-07-04T10:25:58;24.30;99.90
30628;DHT22;17394;50.890;4.724;2022-07-04T10:28:24;24.30;99.90
30628;DHT22;17394;50.890;4.724;2022-07-04T10:30:57;24.10;99.90
30628;DHT22;17394;50.890;4.724;2022-07-04T10:33:30;24.00;99.90
30628;DHT22;17394;50.890;4.724;2022-07-04T10:38:33;24.10;99.90
30628;DHT22;17394;50.890;4.724;2022-07-04T10:41:07;23.80;99.90
30628;DHT22;17394;50.890;4.724;2022-07-04T10:51:38;24.60;99.90
30628;DHT22;17394;50.890;4.724;2022-07-04T10:56:55;25.00;99.90
30628;DHT22;17394;50.890;4.724;2022-07-04T10:59:28;24.90;99.90
30628;DHT22;17394;50.890;4.724;2022-07-04T11:04:53;24.60;99.50
30628;DHT22;17394;50.890;4.724;2022-07-04T11:07:23;24.50;99.90
30628;DHT22;17394;50.890;4.724;2022-07-04T11:18:08;24.20;99.60
30628;DHT22;17394;50.890;4.724;2022-07-04T11:20:36;24.20;99.00
30628;DHT22;17394;50.890;4.724;2022-07-04T11:23:13;24.30;99.20
30628;DHT22;17394;50.890;4.724;2022-07-04T11:25:45;24.50;99.90
30628;DHT22;17394;50.890;4.724;2022-07-04T11:28:38;24.80;99.30
30628;DHT22;17394;50.890;4.724;2022-07-04T11:31:06;24.90;99.20
30628;DHT22;17394;50.890;4.724;2022-07-04T11:33:34;24.80;99.00
30628;DHT22;17394;50.890;4.724;2022-07-04T11:36:18;24.90;99.00
30628;DHT22;17394;50.890;4.724;2022-07-04T11:39:05;24.80;98.20
30628;DHT22;17394;50.890;4.724;2022-07-04T11:41:41;24.50;97.70
30628;DHT22;17394;50.890;4.724;2022-07-04T11:44:38;24.20;97.80
30628;DHT22;17394;50.890;4.724;2022-07-04T11:47:37;24.10;97.20
30628;DHT22;17394;50.890;4.724;2022-07-04T11:50:13;23.90;97.80
30628;DHT22;17394;50.890;4.724;2022-07-04T11:52:46;23.70;98.30
30628;DHT22;17394;50.890;4.724;2022-07-04T11:55:17;23.90;99.10
30628;DHT22;17394;50.890;4.724;2022-07-04T11:57:51;24.40;99.90
30628;DHT22;17394;50.890;4.724;2022-07-04T12:00:29;24.90;99.40
30628;DHT22;17394;50.890;4.724;2022-07-04T12:03:02;25.00;98.50
30628;DHT22;17394;50.890;4.724;2022-07-04T12:05:28;24.80;99.40
30628;DHT22;17394;50.890;4.724;2022-07-04T12:08:03;24.60;98.40
30628;DHT22;17394;50.890;4.724;2022-07-04T12:10:32;24.40;99.30
30628;DHT22;17394;50.890;4.724;2022-07-04T12:13:05;24.20;99.90
30628;DHT22;17394;50.890;4.724;2022-07-04T12:15:43;24.40;99.90
30628;DHT22;17394;50.890;4.724;2022-07-04T12:18:25;24.60;99.90
30628;DHT22;17394;50.890;4.724;2022-07-04T12:20:54;24.70;98.50
30628;DHT22;17394;50.890;4.724;2022-07-04T12:23:23;24.80;98.50
30628;DHT22;17394;50.890;4.724;2022-07-04T12:25:52;25.00;98.60
30628;DHT22;17394;50.890;4.724;2022-07-04T12:28:18;25.10;98.70
30628;DHT22;17394;50.890;4.724;2022-07-04T12:30:58;25.30;98.40
30628;DHT22;17394;50.890;4.724;2022-07-04T12:33:28;25.40;97.80
30628;DHT22;17394;50.890;4.724;2022-07-04T12:35:59;25.50;97.50
30628;DHT22;17394;50.890;4.724;2022-07-04T12:41:07;25.30;98.20
30628;DHT22;17394;50.890;4.724;2022-07-04T12:46:13;25.30;98.10
30628;DHT22;17394;50.890;4.724;2022-07-04T12:48:41;25.30;97.60
30628;DHT22;17394;50.890;4.724;2022-07-04T12:51:27;25.30;96.60
30628;DHT22;17394;50.890;4.724;2022-07-04T12:53:57;25.30;97.80
30628;DHT22;17394;50.890;4.724;2022-07-04T12:59:09;25.40;97.90
30628;DHT22;17394;50.890;4.724;2022-07-04T13:01:38;25.50;98.80
30628;DHT22;17394;50.890;4.724;2022-07-04T13:04:05;25.70;97.90
30628;DHT22;17394;50.890;4.724;2022-07-04T13:06:33;25.90;97.30
30628;DHT22;17394;50.890;4.724;2022-07-04T13:08:59;26.20;97.70
30628;DHT22;17394;50.890;4.724;2022-07-04T13:11:25;26.00;95.80
30628;DHT22;17394;50.890;4.724;2022-07-04T13:14:10;25.80;96.30
30628;DHT22;17394;50.890;4.724;2022-07-04T13:16:36;25.60;95.80
30628;DHT22;17394;50.890;4.724;2022-07-04T13:19:03;25.40;95.80
30628;DHT22;17394;50.890;4.724;2022-07-04T13:21:30;25.40;95.10
30628;DHT22;17394;50.890;4.724;2022-07-04T13:23:56;25.30;94.70
30628;DHT22;17394;50.890;4.724;2022-07-04T13:26:22;25.70;95.60
30628;DHT22;17394;50.890;4.724;2022-07-04T13:28:48;25.80;95.50
30628;DHT22;17394;50.890;4.724;2022-07-04T13:31:15;26.00;95.00
30628;DHT22;17394;50.890;4.724;2022-07-04T13:33:41;26.10;95.00
30628;DHT22;17394;50.890;4.724;2022-07-04T13:36:07;26.20;95.10
30628;DHT22;17394;50.890;4.724;2022-07-04T13:38:35;26.00;93.80
30628;DHT22;17394;50.890;4.724;2022-07-04T13:41:01;25.80;94.50
30628;DHT22;17394;50.890;4.724;2022-07-04T13:43:29;25.80;95.40
30628;DHT22;17394;50.890;4.724;2022-07-04T13:45:56;26.10;96.30
30628;DHT22;17394;50.890;4.724;2022-07-04T13:48:23;26.40;95.70
30628;DHT22;17394;50.890;4.724;2022-07-04T13:50:51;26.70;95.40
30628;DHT22;17394;50.890;4.724;2022-07-04T13:53:17;26.70;94.10
30628;DHT22;17394;50.890;4.724;2022-07-04T13:55:43;26.70;94.30
30628;DHT22;17394;50.890;4.724;2022-07-04T13:58:10;26.70;93.10
30628;DHT22;17394;50.890;4.724;2022-07-04T14:00:38;26.60;93.30
30628;DHT22;17394;50.890;4.724;2022-07-04T14:03:07;26.50;91.90
30628;DHT22;17394;50.890;4.724;2022-07-04T14:05:33;26.20;92.20
30628;DHT22;17394;50.890;4.724;2022-07-04T14:08:00;26.10;92.90
30628;DHT22;17394;50.890;4.724;2022-07-04T14:10:26;26.20;93.10
30628;DHT22;17394;50.890;4.724;2022-07-04T14:12:52;26.10;92.60
30628;DHT22;17394;50.890;4.724;2022-07-04T14:15:19;26.00;93.20
30628;DHT22;17394;50.890;4.724;2022-07-04T14:17:45;26.20;94.70
30628;DHT22;17394;50.890;4.724;2022-07-04T14:20:11;26.60;94.50
30628;DHT22;17394;50.890;4.724;2022-07-04T14:22:40;26.80;92.80
30628;DHT22;17394;50.890;4.724;2022-07-04T14:25:08;27.00;93.50
30628;DHT22;17394;50.890;4.724;2022-07-04T14:27:34;27.10;92.30
30628;DHT22;17394;50.890;4.724;2022-07-04T14:30:01;27.30;92.10
30628;DHT22;17394;50.890;4.724;2022-07-04T14:32:27;27.50;91.90
30628;DHT22;17394;50.890;4.724;2022-07-04T14:34:54;27.60;91.40
30628;DHT22;17394;50.890;4.724;2022-07-04T14:37:20;27.60;91.40
30628;DHT22;17394;50.890;4.724;2022-07-04T14:39:49;27.40;89.10
30628;DHT22;17394;50.890;4.724;2022-07-04T14:42:15;27.10;89.50
30628;DHT22;17394;50.890;4.724;2022-07-04T14:44:42;27.10;90.10
30628;DHT22;17394;50.890;4.724;2022-07-04T14:47:08;27.20;88.00
30628;DHT22;17394;50.890;4.724;2022-07-04T14:49:34;27.10;87.10
30628;DHT22;17394;50.890;4.724;2022-07-04T14:52:01;27.20;90.00
30628;DHT22;17394;50.890;4.724;2022-07-04T14:54:27;27.10;85.00
30628;DHT22;17394;50.890;4.724;2022-07-04T14:56:54;27.00;85.20
30628;DHT22;17394;50.890;4.724;2022-07-04T14:59:20;26.90;87.10
30628;DHT22;17394;50.890;4.724;2022-07-04T15:01:46;26.90;87.50
30628;DHT22;17394;50.890;4.724;2022-07-04T15:04:12;26.80;87.80
30628;DHT22;17394;50.890;4.724;2022-07-04T15:06:38;26.80;88.30
30628;DHT22;17394;50.890;4.724;2022-07-04T15:09:05;26.70;89.20
30628;DHT22;17394;50.890;4.724;2022-07-04T15:11:32;26.50;88.00
30628;DHT22;17394;50.890;4.724;2022-07-04T15:13:58;26.30;87.80
30628;DHT22;17394;50.890;4.724;2022-07-04T15:16:25;26.40;89.70
30628;DHT22;17394;50.890;4.724;2022-07-04T15:18:52;26.30;88.00
30628;DHT22;17394;50.890;4.724;2022-07-04T15:21:19;26.30;89.00
30628;DHT22;17394;50.890;4.724;2022-07-04T15:24:05;26.50;90.30
30628;DHT22;17394;50.890;4.724;2022-07-04T15:26:43;26.60;89.20
30628;DHT22;17394;50.890;4.724;2022-07-04T15:29:13;26.90;89.00
30628;DHT22;17394;50.890;4.724;2022-07-04T15:31:41;26.90;88.80
30628;DHT22;17394;50.890;4.724;2022-07-04T15:34:07;26.70;87.90
30628;DHT22;17394;50.890;4.724;2022-07-04T15:36:34;26.80;88.40
30628;DHT22;17394;50.890;4.724;2022-07-04T15:39:07;26.90;87.60
30628;DHT22;17394;50.890;4.724;2022-07-04T15:41:37;27.00;88.70
30628;DHT22;17394;50.890;4.724;2022-07-04T15:44:04;27.10;89.30
30628;DHT22;17394;50.890;4.724;2022-07-04T15:46:31;27.20;90.00
30628;DHT22;17394;50.890;4.724;2022-07-04T15:48:58;27.10;89.80
30628;DHT22;17394;50.890;4.724;2022-07-04T15:51:24;26.90;88.60
30628;DHT22;17394;50.890;4.724;2022-07-04T15:53:50;26.60;88.80
30628;DHT22;17394;50.890;4.724;2022-07-04T15:56:16;26.30;88.10
30628;DHT22;17394;50.890;4.724;2022-07-04T15:58:42;26.10;89.20
30628;DHT22;17394;50.890;4.724;2022-07-04T16:01:08;25.90;89.20
30628;DHT22;17394;50.890;4.724;2022-07-04T16:03:34;26.00;90.30
30628;DHT22;17394;50.890;4.724;2022-07-04T16:06:00;26.00;90.40
30628;DHT22;17394;50.890;4.724;2022-07-04T16:08:26;25.90;90.30
30628;DHT22;17394;50.890;4.724;2022-07-04T16:10:53;25.80;90.80
30628;DHT22;17394;50.890;4.724;2022-07-04T16:13:19;25.70;90.70
30628;DHT22;17394;50.890;4.724;2022-07-04T16:15:45;25.70;90.30
30628;DHT22;17394;50.890;4.724;2022-07-04T16:18:11;25.60;90.10